« Back
NWS Peachtree City, Ga » Text Product » MCN Terminal Aerodrome Forecast


Printer-friendly Version
Current Version              Previous Versions:   1  2  3  4  5  6  7  8  9  

Terminal Aerodrome Forecast

037
FTUS42 KFFC 280532
TAFMCN
TAF
KMCN 280532Z 2806/2906 25005KT P6SM SKC
     FM281500 25010G15KT P6SM FEW040
     FM281800 24012G18KT P6SM VCSH BKN050
     FM282300 26008KT P6SM BKN250=



USA.gov is the U.S. government's official web portal to all federal, state and local government web resources and services.